sensor_id;sensor_type;location;lat;lon;timestamp;P1;durP1;ratioP1;P2;durP2;ratioP2
52564;SDS011;38460;53.106;7.004;2022-11-02T00:00:29;6.43;;;2.35;;
52564;SDS011;38460;53.106;7.004;2022-11-02T00:02:55;5.93;;;1.83;;
52564;SDS011;38460;53.106;7.004;2022-11-02T00:05:21;8.73;;;2.20;;
52564;SDS011;38460;53.106;7.004;2022-11-02T00:07:53;6.93;;;2.20;;
52564;SDS011;38460;53.106;7.004;2022-11-02T00:10:20;9.27;;;2.03;;
52564;SDS011;38460;53.106;7.004;2022-11-02T00:12:47;5.55;;;1.88;;
52564;SDS011;38460;53.106;7.004;2022-11-02T00:15:13;4.03;;;1.75;;
52564;SDS011;38460;53.106;7.004;2022-11-02T00:17:43;5.07;;;1.75;;
52564;SDS011;38460;53.106;7.004;2022-11-02T00:20:13;8.00;;;2.10;;
52564;SDS011;38460;53.106;7.004;2022-11-02T00:22:40;6.55;;;1.80;;
52564;SDS011;38460;53.106;7.004;2022-11-02T00:25:08;6.00;;;2.10;;
52564;SDS011;38460;53.106;7.004;2022-11-02T00:27:36;4.57;;;1.50;;
52564;SDS011;38460;53.106;7.004;2022-11-02T00:30:02;6.13;;;1.90;;
52564;SDS011;38460;53.106;7.004;2022-11-02T00:32:28;7.95;;;2.20;;
52564;SDS011;38460;53.106;7.004;2022-11-02T00:34:54;9.73;;;2.28;;
52564;SDS011;38460;53.106;7.004;2022-11-02T00:37:20;8.50;;;2.05;;
52564;SDS011;38460;53.106;7.004;2022-11-02T00:39:46;6.88;;;2.20;;
52564;SDS011;38460;53.106;7.004;2022-11-02T00:42:11;3.55;;;1.73;;
52564;SDS011;38460;53.106;7.004;2022-11-02T00:44:37;7.97;;;1.88;;
52564;SDS011;38460;53.106;7.004;2022-11-02T00:47:03;5.88;;;1.92;;
52564;SDS011;38460;53.106;7.004;2022-11-02T00:49:29;4.93;;;1.30;;
52564;SDS011;38460;53.106;7.004;2022-11-02T00:51:54;4.18;;;1.40;;
52564;SDS011;38460;53.106;7.004;2022-11-02T00:54:20;5.35;;;1.92;;
52564;SDS011;38460;53.106;7.004;2022-11-02T00:56:46;7.03;;;1.55;;
52564;SDS011;38460;53.106;7.004;2022-11-02T00:59:11;5.28;;;1.98;;
52564;SDS011;38460;53.106;7.004;2022-11-02T01:01:37;8.45;;;2.33;;
52564;SDS011;38460;53.106;7.004;2022-11-02T01:04:03;6.32;;;2.08;;
52564;SDS011;38460;53.106;7.004;2022-11-02T01:06:29;6.93;;;1.80;;
52564;SDS011;38460;53.106;7.004;2022-11-02T01:08:54;5.43;;;1.63;;
52564;SDS011;38460;53.106;7.004;2022-11-02T01:11:22;7.65;;;1.70;;
52564;SDS011;38460;53.106;7.004;2022-11-02T01:13:51;6.20;;;1.83;;
52564;SDS011;38460;53.106;7.004;2022-11-02T01:16:18;9.93;;;2.42;;
52564;SDS011;38460;53.106;7.004;2022-11-02T01:18:44;7.93;;;2.13;;
52564;SDS011;38460;53.106;7.004;2022-11-02T01:21:10;6.00;;;2.00;;
52564;SDS011;38460;53.106;7.004;2022-11-02T01:23:36;10.27;;;2.10;;
52564;SDS011;38460;53.106;7.004;2022-11-02T01:26:03;4.35;;;1.55;;
52564;SDS011;38460;53.106;7.004;2022-11-02T01:28:30;5.10;;;1.15;;
52564;SDS011;38460;53.106;7.004;2022-11-02T01:30:56;4.15;;;1.73;;
52564;SDS011;38460;53.106;7.004;2022-11-02T01:33:23;4.07;;;1.55;;
52564;SDS011;38460;53.106;7.004;2022-11-02T01:35:49;4.13;;;1.20;;
52564;SDS011;38460;53.106;7.004;2022-11-02T01:38:15;3.17;;;0.98;;
52564;SDS011;38460;53.106;7.004;2022-11-02T01:40:41;3.90;;;1.20;;
52564;SDS011;38460;53.106;7.004;2022-11-02T01:45:44;4.28;;;1.20;;
52564;SDS011;38460;53.106;7.004;2022-11-02T01:48:11;2.92;;;1.27;;
52564;SDS011;38460;53.106;7.004;2022-11-02T01:50:37;3.55;;;1.10;;
52564;SDS011;38460;53.106;7.004;2022-11-02T01:53:03;3.72;;;1.17;;
52564;SDS011;38460;53.106;7.004;2022-11-02T01:55:29;5.53;;;1.38;;
52564;SDS011;38460;53.106;7.004;2022-11-02T01:57:58;3.88;;;1.20;;
52564;SDS011;38460;53.106;7.004;2022-11-02T02:00:28;6.60;;;2.67;;
52564;SDS011;38460;53.106;7.004;2022-11-02T02:03:03;5.45;;;2.17;;
52564;SDS011;38460;53.106;7.004;2022-11-02T02:05:32;5.03;;;1.88;;
52564;SDS011;38460;53.106;7.004;2022-11-02T02:08:02;5.03;;;2.00;;
52564;SDS011;38460;53.106;7.004;2022-11-02T02:10:29;7.60;;;2.08;;
52564;SDS011;38460;53.106;7.004;2022-11-02T02:12:54;4.63;;;2.13;;
52564;SDS011;38460;53.106;7.004;2022-11-02T02:15:21;7.32;;;2.83;;
52564;SDS011;38460;53.106;7.004;2022-11-02T02:17:57;7.88;;;2.40;;
52564;SDS011;38460;53.106;7.004;2022-11-02T02:31:23;10.07;;;2.60;;
52564;SDS011;38460;53.106;7.004;2022-11-02T02:34:12;10.10;;;3.08;;
52564;SDS011;38460;53.106;7.004;2022-11-02T02:39:51;9.27;;;2.85;;
52564;SDS011;38460;53.106;7.004;2022-11-02T02:42:18;12.38;;;2.90;;
52564;SDS011;38460;53.106;7.004;2022-11-02T02:47:43;9.63;;;2.55;;
52564;SDS011;38460;53.106;7.004;2022-11-02T02:50:18;9.43;;;2.50;;
52564;SDS011;38460;53.106;7.004;2022-11-02T02:52:48;7.60;;;2.85;;
52564;SDS011;38460;53.106;7.004;2022-11-02T02:55:17;8.63;;;2.20;;
52564;SDS011;38460;53.106;7.004;2022-11-02T02:57:47;8.57;;;2.58;;
52564;SDS011;38460;53.106;7.004;2022-11-02T03:00:15;9.30;;;3.08;;
52564;SDS011;38460;53.106;7.004;2022-11-02T03:02:42;8.10;;;2.55;;
52564;SDS011;38460;53.106;7.004;2022-11-02T03:05:26;9.38;;;2.60;;
52564;SDS011;38460;53.106;7.004;2022-11-02T03:07:55;7.68;;;2.70;;
52564;SDS011;38460;53.106;7.004;2022-11-02T03:10:30;5.80;;;2.88;;
52564;SDS011;38460;53.106;7.004;2022-11-02T03:16:04;4.85;;;2.10;;
52564;SDS011;38460;53.106;7.004;2022-11-02T03:19:00;11.35;;;3.35;;
52564;SDS011;38460;53.106;7.004;2022-11-02T03:21:36;7.47;;;2.38;;
52564;SDS011;38460;53.106;7.004;2022-11-02T03:26:57;5.53;;;1.92;;
52564;SDS011;38460;53.106;7.004;2022-11-02T03:32:19;6.53;;;2.15;;
52564;SDS011;38460;53.106;7.004;2022-11-02T03:34:48;6.85;;;2.10;;
52564;SDS011;38460;53.106;7.004;2022-11-02T03:37:21;5.68;;;1.80;;
52564;SDS011;38460;53.106;7.004;2022-11-02T03:40:15;3.42;;;1.67;;
52564;SDS011;38460;53.106;7.004;2022-11-02T03:42:45;6.90;;;2.35;;
52564;SDS011;38460;53.106;7.004;2022-11-02T03:45:56;5.32;;;2.10;;
52564;SDS011;38460;53.106;7.004;2022-11-02T03:48:10;6.22;;;1.98;;
52564;SDS011;38460;53.106;7.004;2022-11-02T03:50:39;8.55;;;1.85;;
52564;SDS011;38460;53.106;7.004;2022-11-02T03:53:11;7.05;;;1.73;;
52564;SDS011;38460;53.106;7.004;2022-11-02T03:58:11;8.98;;;2.00;;
52564;SDS011;38460;53.106;7.004;2022-11-02T04:00:36;8.30;;;1.90;;
52564;SDS011;38460;53.106;7.004;2022-11-02T04:03:11;4.43;;;1.80;;
52564;SDS011;38460;53.106;7.004;2022-11-02T04:05:37;5.53;;;1.95;;
52564;SDS011;38460;53.106;7.004;2022-11-02T04:08:03;4.10;;;1.52;;
52564;SDS011;38460;53.106;7.004;2022-11-02T04:10:48;6.47;;;1.88;;
52564;SDS011;38460;53.106;7.004;2022-11-02T04:13:33;5.63;;;1.83;;
52564;SDS011;38460;53.106;7.004;2022-11-02T04:16:18;4.40;;;1.52;;
52564;SDS011;38460;53.106;7.004;2022-11-02T04:18:44;4.70;;;1.85;;
52564;SDS011;38460;53.106;7.004;2022-11-02T04:21:29;6.93;;;1.75;;
52564;SDS011;38460;53.106;7.004;2022-11-02T04:23:55;4.75;;;1.67;;
52564;SDS011;38460;53.106;7.004;2022-11-02T04:26:39;9.20;;;2.25;;
52564;SDS011;38460;53.106;7.004;2022-11-02T04:29:05;7.60;;;2.80;;
52564;SDS011;38460;53.106;7.004;2022-11-02T04:31:30;5.32;;;1.92;;
52564;SDS011;38460;53.106;7.004;2022-11-02T04:33:56;4.18;;;1.50;;
52564;SDS011;38460;53.106;7.004;2022-11-02T04:36:23;7.50;;;2.08;;
52564;SDS011;38460;53.106;7.004;2022-11-02T04:38:50;6.03;;;1.60;;
52564;SDS011;38460;53.106;7.004;2022-11-02T04:41:16;7.22;;;1.50;;
52564;SDS011;38460;53.106;7.004;2022-11-02T04:44:01;5.32;;;1.60;;
52564;SDS011;38460;53.106;7.004;2022-11-02T04:46:28;8.60;;;1.90;;
52564;SDS011;38460;53.106;7.004;2022-11-02T04:48:55;5.22;;;1.77;;
52564;SDS011;38460;53.106;7.004;2022-11-02T04:51:21;6.13;;;1.80;;
52564;SDS011;38460;53.106;7.004;2022-11-02T04:53:48;4.60;;;1.50;;
52564;SDS011;38460;53.106;7.004;2022-11-02T04:56:16;5.18;;;1.27;;
52564;SDS011;38460;53.106;7.004;2022-11-02T04:58:42;7.30;;;1.48;;
52564;SDS011;38460;53.106;7.004;2022-11-02T05:01:09;4.53;;;1.25;;
52564;SDS011;38460;53.106;7.004;2022-11-02T05:03:38;4.75;;;1.70;;
52564;SDS011;38460;53.106;7.004;2022-11-02T05:06:04;6.80;;;1.55;;
52564;SDS011;38460;53.106;7.004;2022-11-02T05:08:30;4.60;;;1.80;;
52564;SDS011;38460;53.106;7.004;2022-11-02T05:10:56;5.70;;;2.00;;
52564;SDS011;38460;53.106;7.004;2022-11-02T05:13:23;4.13;;;1.40;;
52564;SDS011;38460;53.106;7.004;2022-11-02T05:15:50;4.38;;;1.70;;
52564;SDS011;38460;53.106;7.004;2022-11-02T05:18:16;5.68;;;2.03;;
52564;SDS011;38460;53.106;7.004;2022-11-02T05:20:42;6.40;;;2.20;;
52564;SDS011;38460;53.106;7.004;2022-11-02T05:23:13;8.05;;;2.40;;
52564;SDS011;38460;53.106;7.004;2022-11-02T05:25:38;8.63;;;2.30;;
52564;SDS011;38460;53.106;7.004;2022-11-02T05:28:04;7.38;;;2.45;;
52564;SDS011;38460;53.106;7.004;2022-11-02T05:30:30;7.68;;;2.85;;
52564;SDS011;38460;53.106;7.004;2022-11-02T05:32:55;6.50;;;2.20;;
52564;SDS011;38460;53.106;7.004;2022-11-02T05:35:21;9.40;;;2.75;;
52564;SDS011;38460;53.106;7.004;2022-11-02T05:37:47;8.18;;;2.28;;
52564;SDS011;38460;53.106;7.004;2022-11-02T05:40:13;7.85;;;3.28;;
52564;SDS011;38460;53.106;7.004;2022-11-02T05:42:39;4.78;;;2.38;;
52564;SDS011;38460;53.106;7.004;2022-11-02T05:45:05;7.97;;;2.55;;
52564;SDS011;38460;53.106;7.004;2022-11-02T05:47:32;7.15;;;2.55;;
52564;SDS011;38460;53.106;7.004;2022-11-02T05:49:58;6.60;;;2.80;;
52564;SDS011;38460;53.106;7.004;2022-11-02T05:52:23;5.70;;;3.30;;
52564;SDS011;38460;53.106;7.004;2022-11-02T05:54:49;5.32;;;2.60;;
52564;SDS011;38460;53.106;7.004;2022-11-02T05:57:15;9.75;;;2.83;;
52564;SDS011;38460;53.106;7.004;2022-11-02T05:59:41;6.63;;;3.15;;
52564;SDS011;38460;53.106;7.004;2022-11-02T06:02:07;8.30;;;2.47;;
52564;SDS011;38460;53.106;7.004;2022-11-02T06:04:32;7.85;;;2.92;;
52564;SDS011;38460;53.106;7.004;2022-11-02T06:06:58;7.80;;;2.63;;
52564;SDS011;38460;53.106;7.004;2022-11-02T06:09:24;7.25;;;2.10;;
52564;SDS011;38460;53.106;7.004;2022-11-02T06:11:49;5.20;;;2.30;;
52564;SDS011;38460;53.106;7.004;2022-11-02T06:14:15;4.55;;;2.22;;
52564;SDS011;38460;53.106;7.004;2022-11-02T06:16:41;5.93;;;2.22;;
52564;SDS011;38460;53.106;7.004;2022-11-02T06:19:06;5.97;;;2.75;;
52564;SDS011;38460;53.106;7.004;2022-11-02T06:21:32;7.32;;;2.20;;
52564;SDS011;38460;53.106;7.004;2022-11-02T06:23:58;5.75;;;2.60;;
52564;SDS011;38460;53.106;7.004;2022-11-02T06:26:24;7.82;;;2.28;;
52564;SDS011;38460;53.106;7.004;2022-11-02T06:28:49;7.38;;;2.50;;
52564;SDS011;38460;53.106;7.004;2022-11-02T06:31:15;10.07;;;2.45;;
52564;SDS011;38460;53.106;7.004;2022-11-02T06:33:41;7.40;;;2.30;;
52564;SDS011;38460;53.106;7.004;2022-11-02T06:36:08;5.07;;;2.08;;
52564;SDS011;38460;53.106;7.004;2022-11-02T06:38:34;9.77;;;2.85;;
52564;SDS011;38460;53.106;7.004;2022-11-02T06:41:01;6.03;;;2.42;;
52564;SDS011;38460;53.106;7.004;2022-11-02T06:43:28;5.72;;;2.17;;
52564;SDS011;38460;53.106;7.004;2022-11-02T06:45:54;8.95;;;2.90;;
52564;SDS011;38460;53.106;7.004;2022-11-02T06:48:21;7.10;;;2.42;;
52564;SDS011;38460;53.106;7.004;2022-11-02T06:50:47;8.50;;;2.47;;
52564;SDS011;38460;53.106;7.004;2022-11-02T06:53:13;10.05;;;3.08;;
52564;SDS011;38460;53.106;7.004;2022-11-02T06:55:38;6.75;;;2.38;;
52564;SDS011;38460;53.106;7.004;2022-11-02T06:58:04;7.18;;;3.13;;
52564;SDS011;38460;53.106;7.004;2022-11-02T07:00:30;11.88;;;3.10;;
52564;SDS011;38460;53.106;7.004;2022-11-02T07:02:59;5.82;;;2.78;;
52564;SDS011;38460;53.106;7.004;2022-11-02T07:05:34;9.23;;;2.88;;
52564;SDS011;38460;53.106;7.004;2022-11-02T07:08:01;10.77;;;3.97;;
52564;SDS011;38460;53.106;7.004;2022-11-02T07:10:27;5.28;;;2.70;;
52564;SDS011;38460;53.106;7.004;2022-11-02T07:12:54;8.45;;;2.40;;
52564;SDS011;38460;53.106;7.004;2022-11-02T07:15:21;8.70;;;2.92;;
52564;SDS011;38460;53.106;7.004;2022-11-02T07:17:48;7.30;;;3.10;;
52564;SDS011;38460;53.106;7.004;2022-11-02T07:20:14;11.55;;;2.50;;
52564;SDS011;38460;53.106;7.004;2022-11-02T07:22:40;7.47;;;2.53;;
52564;SDS011;38460;53.106;7.004;2022-11-02T07:25:06;6.88;;;2.30;;
52564;SDS011;38460;53.106;7.004;2022-11-02T07:27:38;10.20;;;2.53;;
52564;SDS011;38460;53.106;7.004;2022-11-02T07:30:05;8.13;;;2.42;;
52564;SDS011;38460;53.106;7.004;2022-11-02T07:32:37;10.02;;;2.53;;
52564;SDS011;38460;53.106;7.004;2022-11-02T07:35:04;7.82;;;2.90;;
52564;SDS011;38460;53.106;7.004;2022-11-02T07:37:31;7.38;;;2.78;;
52564;SDS011;38460;53.106;7.004;2022-11-02T07:39:57;12.40;;;2.53;;
52564;SDS011;38460;53.106;7.004;2022-11-02T07:42:23;7.90;;;2.53;;
52564;SDS011;38460;53.106;7.004;2022-11-02T07:44:48;7.30;;;3.22;;
52564;SDS011;38460;53.106;7.004;2022-11-02T07:47:14;7.68;;;2.67;;
52564;SDS011;38460;53.106;7.004;2022-11-02T07:49:40;7.90;;;2.78;;
52564;SDS011;38460;53.106;7.004;2022-11-02T07:52:05;7.75;;;2.08;;
52564;SDS011;38460;53.106;7.004;2022-11-02T07:54:31;7.80;;;2.30;;
52564;SDS011;38460;53.106;7.004;2022-11-02T07:56:57;9.20;;;2.35;;
52564;SDS011;38460;53.106;7.004;2022-11-02T07:59:23;10.80;;;3.00;;
52564;SDS011;38460;53.106;7.004;2022-11-02T08:01:48;7.32;;;3.20;;
52564;SDS011;38460;53.106;7.004;2022-11-02T08:04:14;9.55;;;2.53;;
52564;SDS011;38460;53.106;7.004;2022-11-02T08:06:40;5.40;;;2.10;;
52564;SDS011;38460;53.106;7.004;2022-11-02T08:09:05;8.25;;;2.17;;
52564;SDS011;38460;53.106;7.004;2022-11-02T08:11:31;6.43;;;2.60;;
52564;SDS011;38460;53.106;7.004;2022-11-02T08:13:57;7.10;;;2.38;;
52564;SDS011;38460;53.106;7.004;2022-11-02T08:16:23;8.02;;;2.28;;
52564;SDS011;38460;53.106;7.004;2022-11-02T08:18:48;10.52;;;2.85;;
52564;SDS011;38460;53.106;7.004;2022-11-02T08:21:14;8.23;;;2.72;;
52564;SDS011;38460;53.106;7.004;2022-11-02T08:23:40;8.30;;;2.10;;
52564;SDS011;38460;53.106;7.004;2022-11-02T08:26:05;6.18;;;2.35;;
52564;SDS011;38460;53.106;7.004;2022-11-02T08:28:31;6.57;;;1.75;;
52564;SDS011;38460;53.106;7.004;2022-11-02T08:31:00;6.82;;;1.70;;
52564;SDS011;38460;53.106;7.004;2022-11-02T08:33:26;7.85;;;2.05;;
52564;SDS011;38460;53.106;7.004;2022-11-02T08:35:52;12.38;;;3.33;;
52564;SDS011;38460;53.106;7.004;2022-11-02T08:38:18;7.30;;;2.25;;
52564;SDS011;38460;53.106;7.004;2022-11-02T08:40:47;8.10;;;1.80;;
52564;SDS011;38460;53.106;7.004;2022-11-02T08:43:14;7.15;;;2.00;;
52564;SDS011;38460;53.106;7.004;2022-11-02T08:45:41;8.48;;;1.83;;
52564;SDS011;38460;53.106;7.004;2022-11-02T08:48:07;6.32;;;1.73;;
52564;SDS011;38460;53.106;7.004;2022-11-02T08:50:34;4.95;;;2.30;;
52564;SDS011;38460;53.106;7.004;2022-11-02T08:53:00;6.68;;;1.83;;
52564;SDS011;38460;53.106;7.004;2022-11-02T08:55:26;5.85;;;1.52;;
52564;SDS011;38460;53.106;7.004;2022-11-02T08:57:55;6.15;;;1.60;;
52564;SDS011;38460;53.106;7.004;2022-11-02T09:00:23;6.00;;;1.60;;
52564;SDS011;38460;53.106;7.004;2022-11-02T09:03:04;11.15;;;1.92;;
52564;SDS011;38460;53.106;7.004;2022-11-02T09:05:33;7.20;;;1.90;;
52564;SDS011;38460;53.106;7.004;2022-11-02T09:08:03;6.28;;;2.08;;
52564;SDS011;38460;53.106;7.004;2022-11-02T09:10:32;6.03;;;1.83;;
52564;SDS011;38460;53.106;7.004;2022-11-02T09:12:59;5.18;;;2.00;;
52564;SDS011;38460;53.106;7.004;2022-11-02T09:15:26;8.00;;;1.70;;
52564;SDS011;38460;53.106;7.004;2022-11-02T09:17:53;4.82;;;1.80;;
52564;SDS011;38460;53.106;7.004;2022-11-02T09:20:19;4.75;;;1.40;;
52564;SDS011;38460;53.106;7.004;2022-11-02T09:22:45;5.45;;;1.92;;
52564;SDS011;38460;53.106;7.004;2022-11-02T09:25:11;6.95;;;1.70;;
52564;SDS011;38460;53.106;7.004;2022-11-02T09:27:38;6.72;;;2.17;;
52564;SDS011;38460;53.106;7.004;2022-11-02T09:30:04;3.53;;;1.48;;
52564;SDS011;38460;53.106;7.004;2022-11-02T09:32:31;5.25;;;1.55;;
52564;SDS011;38460;53.106;7.004;2022-11-02T09:35:05;10.77;;;1.80;;
52564;SDS011;38460;53.106;7.004;2022-11-02T09:37:33;6.78;;;2.00;;
52564;SDS011;38460;53.106;7.004;2022-11-02T09:39:59;6.88;;;1.80;;
52564;SDS011;38460;53.106;7.004;2022-11-02T09:42:31;4.07;;;1.50;;
52564;SDS011;38460;53.106;7.004;2022-11-02T09:45:11;5.55;;;1.75;;
52564;SDS011;38460;53.106;7.004;2022-11-02T09:47:42;7.03;;;1.70;;
52564;SDS011;38460;53.106;7.004;2022-11-02T09:50:20;8.38;;;1.60;;
52564;SDS011;38460;53.106;7.004;2022-11-02T09:52:58;8.65;;;1.65;;
52564;SDS011;38460;53.106;7.004;2022-11-02T09:55:28;6.18;;;1.63;;
52564;SDS011;38460;53.106;7.004;2022-11-02T09:57:58;8.73;;;1.92;;
52564;SDS011;38460;53.106;7.004;2022-11-02T10:00:37;17.35;;;2.50;;
52564;SDS011;38460;53.106;7.004;2022-11-02T10:06:11;4.47;;;1.33;;
52564;SDS011;38460;53.106;7.004;2022-11-02T10:14:41;5.35;;;1.98;;
52564;SDS011;38460;53.106;7.004;2022-11-02T10:17:21;6.57;;;1.80;;
52564;SDS011;38460;53.106;7.004;2022-11-02T10:19:54;7.07;;;2.28;;
52564;SDS011;38460;53.106;7.004;2022-11-02T10:22:32;4.38;;;1.33;;
52564;SDS011;38460;53.106;7.004;2022-11-02T10:27:32;7.78;;;1.88;;
52564;SDS011;38460;53.106;7.004;2022-11-02T10:32:28;8.57;;;2.40;;
52564;SDS011;38460;53.106;7.004;2022-11-02T10:34:56;5.47;;;1.65;;
52564;SDS011;38460;53.106;7.004;2022-11-02T10:42:50;8.20;;;2.13;;
52564;SDS011;38460;53.106;7.004;2022-11-02T10:45:35;5.60;;;1.70;;
52564;SDS011;38460;53.106;7.004;2022-11-02T10:51:02;8.27;;;1.80;;
52564;SDS011;38460;53.106;7.004;2022-11-02T10:53:38;6.00;;;2.10;;
52564;SDS011;38460;53.106;7.004;2022-11-02T10:56:15;9.63;;;2.60;;
52564;SDS011;38460;53.106;7.004;2022-11-02T11:01:24;7.80;;;2.10;;
52564;SDS011;38460;53.106;7.004;2022-11-02T11:06:22;7.10;;;1.75;;
52564;SDS011;38460;53.106;7.004;2022-11-02T11:08:51;4.47;;;1.60;;
52564;SDS011;38460;53.106;7.004;2022-11-02T11:13:56;5.88;;;1.80;;
52564;SDS011;38460;53.106;7.004;2022-11-02T11:16:40;10.35;;;2.03;;
52564;SDS011;38460;53.106;7.004;2022-11-02T11:21:53;2.90;;;1.42;;
52564;SDS011;38460;53.106;7.004;2022-11-02T11:24:21;6.45;;;1.80;;
52564;SDS011;38460;53.106;7.004;2022-11-02T11:27:14;6.43;;;2.28;;
52564;SDS011;38460;53.106;7.004;2022-11-02T11:29:54;8.63;;;1.90;;
52564;SDS011;38460;53.106;7.004;2022-11-02T11:32:22;5.65;;;1.90;;
52564;SDS011;38460;53.106;7.004;2022-11-02T11:35:13;9.40;;;1.83;;
52564;SDS011;38460;53.106;7.004;2022-11-02T11:37:55;5.87;;;1.70;;
52564;SDS011;38460;53.106;7.004;2022-11-02T11:40:23;8.17;;;2.57;;
52564;SDS011;38460;53.106;7.004;2022-11-02T11:42:52;5.47;;;1.58;;
52564;SDS011;38460;53.106;7.004;2022-11-02T11:47:51;5.15;;;2.20;;
52564;SDS011;38460;53.106;7.004;2022-11-02T11:50:19;7.97;;;2.28;;
52564;SDS011;38460;53.106;7.004;2022-11-02T11:52:46;6.78;;;2.47;;
52564;SDS011;38460;53.106;7.004;2022-11-02T12:09:31;4.07;;;1.70;;
52564;SDS011;38460;53.106;7.004;2022-11-02T12:12:07;4.75;;;1.40;;
52564;SDS011;38460;53.106;7.004;2022-11-02T12:14:57;4.43;;;1.38;;
52564;SDS011;38460;53.106;7.004;2022-11-02T12:25:51;5.45;;;1.55;;
52564;SDS011;38460;53.106;7.004;2022-11-02T12:28:39;6.25;;;1.90;;
52564;SDS011;38460;53.106;7.004;2022-11-02T12:31:50;8.93;;;2.25;;
52564;SDS011;38460;53.106;7.004;2022-11-02T12:34:55;4.20;;;1.25;;
52564;SDS011;38460;53.106;7.004;2022-11-02T12:43:10;4.32;;;1.58;;
52564;SDS011;38460;53.106;7.004;2022-11-02T12:51:11;6.88;;;2.03;;
52564;SDS011;38460;53.106;7.004;2022-11-02T12:59:27;4.88;;;1.63;;
52564;SDS011;38460;53.106;7.004;2022-11-02T13:02:02;5.65;;;1.65;;
52564;SDS011;38460;53.106;7.004;2022-11-02T13:04:39;7.32;;;1.50;;
52564;SDS011;38460;53.106;7.004;2022-11-02T13:07:10;6.05;;;1.40;;
52564;SDS011;38460;53.106;7.004;2022-11-02T13:09:40;7.82;;;1.58;;
52564;SDS011;38460;53.106;7.004;2022-11-02T13:12:14;8.95;;;1.88;;
52564;SDS011;38460;53.106;7.004;2022-11-02T13:14:47;5.65;;;1.10;;
52564;SDS011;38460;53.106;7.004;2022-11-02T13:17:19;5.68;;;2.08;;
52564;SDS011;38460;53.106;7.004;2022-11-02T13:19:58;6.03;;;1.63;;
52564;SDS011;38460;53.106;7.004;2022-11-02T13:22:29;6.05;;;1.65;;
52564;SDS011;38460;53.106;7.004;2022-11-02T13:25:03;11.13;;;1.83;;
52564;SDS011;38460;53.106;7.004;2022-11-02T13:28:01;6.40;;;1.75;;
52564;SDS011;38460;53.106;7.004;2022-11-02T13:30:34;7.30;;;1.50;;
52564;SDS011;38460;53.106;7.004;2022-11-02T13:33:01;6.20;;;1.42;;
52564;SDS011;38460;53.106;7.004;2022-11-02T13:35:41;5.10;;;1.17;;
52564;SDS011;38460;53.106;7.004;2022-11-02T13:43:45;5.55;;;1.40;;
52564;SDS011;38460;53.106;7.004;2022-11-02T13:49:33;7.40;;;1.92;;
52564;SDS011;38460;53.106;7.004;2022-11-02T13:52:13;9.00;;;2.35;;
52564;SDS011;38460;53.106;7.004;2022-11-02T13:54:59;4.28;;;1.60;;
52564;SDS011;38460;53.106;7.004;2022-11-02T13:59:53;9.05;;;2.10;;
52564;SDS011;38460;53.106;7.004;2022-11-02T14:02:19;3.67;;;1.30;;
52564;SDS011;38460;53.106;7.004;2022-11-02T14:04:46;6.78;;;1.58;;
52564;SDS011;38460;53.106;7.004;2022-11-02T14:07:29;5.43;;;1.75;;
52564;SDS011;38460;53.106;7.004;2022-11-02T14:12:56;7.82;;;3.03;;
52564;SDS011;38460;53.106;7.004;2022-11-02T14:20:30;6.18;;;1.70;;
52564;SDS011;38460;53.106;7.004;2022-11-02T14:30:54;5.15;;;1.60;;
52564;SDS011;38460;53.106;7.004;2022-11-02T14:38:55;4.07;;;1.52;;
52564;SDS011;38460;53.106;7.004;2022-11-02T14:44:22;6.05;;;2.50;;
52564;SDS011;38460;53.106;7.004;2022-11-02T14:47:07;7.32;;;1.70;;
52564;SDS011;38460;53.106;7.004;2022-11-02T14:49:45;6.25;;;1.70;;
52564;SDS011;38460;53.106;7.004;2022-11-02T14:57:34;4.20;;;1.70;;
52564;SDS011;38460;53.106;7.004;2022-11-02T15:00:17;6.57;;;2.33;;
52564;SDS011;38460;53.106;7.004;2022-11-02T15:02:43;6.45;;;1.80;;
52564;SDS011;38460;53.106;7.004;2022-11-02T15:08:05;7.60;;;2.20;;
52564;SDS011;38460;53.106;7.004;2022-11-02T15:10:41;8.40;;;2.05;;
52564;SDS011;38460;53.106;7.004;2022-11-02T15:16:36;9.00;;;2.38;;
52564;SDS011;38460;53.106;7.004;2022-11-02T15:18:36;6.28;;;2.63;;
52564;SDS011;38460;53.106;7.004;2022-11-02T15:26:22;7.82;;;2.20;;
52564;SDS011;38460;53.106;7.004;2022-11-02T15:28:48;9.00;;;2.30;;
52564;SDS011;38460;53.106;7.004;2022-11-02T15:31:16;7.53;;;2.17;;
52564;SDS011;38460;53.106;7.004;2022-11-02T15:33:45;5.35;;;2.13;;
52564;SDS011;38460;53.106;7.004;2022-11-02T15:36:14;8.15;;;2.53;;
52564;SDS011;38460;53.106;7.004;2022-11-02T15:38:46;10.30;;;2.20;;
52564;SDS011;38460;53.106;7.004;2022-11-02T15:44:21;6.95;;;1.98;;
52564;SDS011;38460;53.106;7.004;2022-11-02T15:58:53;8.20;;;2.25;;
52564;SDS011;38460;53.106;7.004;2022-11-02T16:01:26;12.13;;;3.08;;
52564;SDS011;38460;53.106;7.004;2022-11-02T16:03:59;9.38;;;2.72;;
52564;SDS011;38460;53.106;7.004;2022-11-02T16:06:32;6.13;;;2.00;;
52564;SDS011;38460;53.106;7.004;2022-11-02T16:14:40;6.50;;;2.47;;
52564;SDS011;38460;53.106;7.004;2022-11-02T16:17:20;7.43;;;2.60;;
52564;SDS011;38460;53.106;7.004;2022-11-02T16:19:47;6.13;;;2.03;;
52564;SDS011;38460;53.106;7.004;2022-11-02T16:22:23;12.00;;;3.00;;
52564;SDS011;38460;53.106;7.004;2022-11-02T16:24:51;6.00;;;1.83;;
52564;SDS011;38460;53.106;7.004;2022-11-02T16:27:18;7.20;;;2.05;;
52564;SDS011;38460;53.106;7.004;2022-11-02T16:29:46;6.38;;;2.20;;
52564;SDS011;38460;53.106;7.004;2022-11-02T16:32:13;7.20;;;2.45;;
52564;SDS011;38460;53.106;7.004;2022-11-02T16:34:39;8.82;;;2.63;;
52564;SDS011;38460;53.106;7.004;2022-11-02T16:37:08;9.48;;;2.45;;
52564;SDS011;38460;53.106;7.004;2022-11-02T16:39:37;5.68;;;1.92;;
52564;SDS011;38460;53.106;7.004;2022-11-02T16:42:15;9.88;;;2.65;;
52564;SDS011;38460;53.106;7.004;2022-11-02T16:44:52;9.45;;;2.10;;
52564;SDS011;38460;53.106;7.004;2022-11-02T16:47:26;4.75;;;2.10;;
52564;SDS011;38460;53.106;7.004;2022-11-02T16:49:59;4.63;;;1.80;;
52564;SDS011;38460;53.106;7.004;2022-11-02T16:54:59;5.05;;;1.83;;
52564;SDS011;38460;53.106;7.004;2022-11-02T16:57:29;7.57;;;2.15;;
52564;SDS011;38460;53.106;7.004;2022-11-02T17:00:04;9.43;;;2.47;;
52564;SDS011;38460;53.106;7.004;2022-11-02T17:02:40;8.43;;;2.20;;
52564;SDS011;38460;53.106;7.004;2022-11-02T17:05:13;5.60;;;1.98;;
52564;SDS011;38460;53.106;7.004;2022-11-02T17:07:45;7.90;;;2.47;;
52564;SDS011;38460;53.106;7.004;2022-11-02T17:10:26;6.30;;;2.15;;
52564;SDS011;38460;53.106;7.004;2022-11-02T17:12:52;5.18;;;1.70;;
52564;SDS011;38460;53.106;7.004;2022-11-02T17:15:23;9.30;;;2.50;;
52564;SDS011;38460;53.106;7.004;2022-11-02T17:20:31;6.75;;;2.60;;
52564;SDS011;38460;53.106;7.004;2022-11-02T17:23:01;8.77;;;2.80;;
52564;SDS011;38460;53.106;7.004;2022-11-02T17:25:36;8.10;;;2.60;;
52564;SDS011;38460;53.106;7.004;2022-11-02T17:30:59;8.55;;;4.30;;
52564;SDS011;38460;53.106;7.004;2022-11-02T17:33:26;7.20;;;3.13;;
52564;SDS011;38460;53.106;7.004;2022-11-02T17:35:55;6.82;;;3.60;;
52564;SDS011;38460;53.106;7.004;2022-11-02T17:38:27;7.28;;;2.58;;
52564;SDS011;38460;53.106;7.004;2022-11-02T17:40:53;6.65;;;2.65;;
52564;SDS011;38460;53.106;7.004;2022-11-02T17:43:20;6.72;;;2.50;;
52564;SDS011;38460;53.106;7.004;2022-11-02T17:45:52;5.70;;;2.60;;
52564;SDS011;38460;53.106;7.004;2022-11-02T17:48:19;8.00;;;3.13;;
52564;SDS011;38460;53.106;7.004;2022-11-02T17:50:44;6.07;;;2.47;;
52564;SDS011;38460;53.106;7.004;2022-11-02T17:53:11;5.78;;;2.00;;
52564;SDS011;38460;53.106;7.004;2022-11-02T17:55:38;6.90;;;2.35;;
52564;SDS011;38460;53.106;7.004;2022-11-02T17:58:04;5.70;;;2.42;;
52564;SDS011;38460;53.106;7.004;2022-11-02T18:00:31;7.65;;;2.97;;
52564;SDS011;38460;53.106;7.004;2022-11-02T18:02:59;9.75;;;2.28;;
52564;SDS011;38460;53.106;7.004;2022-11-02T18:07:57;5.78;;;2.92;;
52564;SDS011;38460;53.106;7.004;2022-11-02T18:10:25;8.07;;;3.22;;
52564;SDS011;38460;53.106;7.004;2022-11-02T18:12:59;12.48;;;3.08;;